createdAt,value
2018-12-14T00:01:32.245Z,90.90
2018-12-14T00:04:04.748Z,91.00
2018-12-14T00:06:40.769Z,90.90
2018-12-14T00:09:13.037Z,90.70
2018-12-14T00:11:49.117Z,90.80
2018-12-14T00:14:24.914Z,90.70
2018-12-14T00:17:01.169Z,90.60
2018-12-14T00:19:37.252Z,90.40
2018-12-14T00:22:13.579Z,90.30
2018-12-14T00:24:49.755Z,90.00
2018-12-14T00:27:22.285Z,89.90
2018-12-14T00:29:58.357Z,89.60
2018-12-14T00:32:34.402Z,90.10
2018-12-14T00:35:10.513Z,90.00
2018-12-14T00:37:46.782Z,90.00
2018-12-14T00:40:23.420Z,90.10
2018-12-14T00:42:59.228Z,90.10
2018-12-14T00:45:35.378Z,90.30
2018-12-14T00:48:11.480Z,90.30
2018-12-14T00:50:47.680Z,90.20
2018-12-14T00:53:23.809Z,90.20
2018-12-14T00:55:59.709Z,90.00
2018-12-14T00:58:35.928Z,89.90
2018-12-14T01:01:12.013Z,89.90
2018-12-14T01:03:48.068Z,90.00
2018-12-14T01:06:24.373Z,90.30
2018-12-14T01:08:56.644Z,90.60
2018-12-14T01:11:32.968Z,90.50
2018-12-14T01:14:09.153Z,90.60
2018-12-14T01:16:45.143Z,90.70
2018-12-14T01:19:21.352Z,90.80
2018-12-14T01:21:53.636Z,90.80
2018-12-14T01:24:29.884Z,90.90
2018-12-14T01:27:05.861Z,91.00
2018-12-14T01:29:42.220Z,91.00
2018-12-14T01:32:18.253Z,91.30
2018-12-14T01:34:54.389Z,91.30
2018-12-14T01:37:30.605Z,91.20
2018-12-14T01:40:07.344Z,91.30
2018-12-14T01:42:39.862Z,91.40
2018-12-14T01:45:12.191Z,91.40
2018-12-14T01:47:44.404Z,91.50
2018-12-14T01:50:20.628Z,91.40
2018-12-14T01:52:56.641Z,91.30
2018-12-14T01:55:32.957Z,91.40
2018-12-14T01:58:09.172Z,91.40
2018-12-14T02:00:45.414Z,91.60
2018-12-14T02:03:21.404Z,91.30
2018-12-14T02:05:57.548Z,91.30
2018-12-14T02:08:33.751Z,91.10
2018-12-14T02:11:09.958Z,91.20
2018-12-14T02:13:42.204Z,91.40
2018-12-14T02:16:14.495Z,91.50
2018-12-14T02:18:50.613Z,91.70
2018-12-14T02:21:26.732Z,91.80
2018-12-14T02:23:59.017Z,91.80
2018-12-14T02:41:55.060Z,91.80
2018-12-14T02:44:30.681Z,91.50
2018-12-14T03:17:47.469Z,91.70
2018-12-14T03:20:23.779Z,91.60
2018-12-14T03:22:59.641Z,91.60
2018-12-14T03:25:35.724Z,91.50
2018-12-14T03:28:07.965Z,91.70
2018-12-14T03:30:44.123Z,91.60
2018-12-14T03:33:20.331Z,91.60
2018-12-14T03:35:56.414Z,91.70
2018-12-14T03:38:32.417Z,91.60
2018-12-14T03:41:08.401Z,91.50
2018-12-14T03:43:44.352Z,91.60
2018-12-14T03:46:20.281Z,91.60
2018-12-14T03:48:56.318Z,91.60
2018-12-14T03:51:32.553Z,91.40
2018-12-14T03:54:08.446Z,91.50
2018-12-14T03:56:44.681Z,91.60
2018-12-14T03:59:17.000Z,91.50
2018-12-14T04:01:53.113Z,91.20
2018-12-14T04:04:29.098Z,91.10
2018-12-14T04:07:05.196Z,91.30
2018-12-14T04:09:41.366Z,91.30
2018-12-14T04:12:17.493Z,91.50
2018-12-14T04:14:53.733Z,91.60
2018-12-14T04:19:58.835Z,91.70
2018-12-14T04:45:31.893Z,91.40
2018-12-14T04:48:08.089Z,91.50
2018-12-14T04:58:19.849Z,91.20
2018-12-14T05:00:55.948Z,91.50
2018-12-14T05:03:32.145Z,91.60
2018-12-14T05:06:08.320Z,91.50
2018-12-14T05:08:44.228Z,91.50
2018-12-14T05:11:20.426Z,91.60
2018-12-14T05:13:56.512Z,91.40
2018-12-14T05:16:32.781Z,91.50
2018-12-14T05:19:08.984Z,91.40
2018-12-14T05:21:45.213Z,91.40
2018-12-14T05:24:21.128Z,91.40
2018-12-14T05:26:57.176Z,91.50
2018-12-14T05:29:33.173Z,91.60
2018-12-14T05:32:09.271Z,91.60
2018-12-14T05:34:41.598Z,91.50
2018-12-14T05:37:17.709Z,91.50
2018-12-14T05:39:53.636Z,91.50
2018-12-14T05:42:25.853Z,91.70
2018-12-14T05:44:58.214Z,91.70
2018-12-14T05:47:34.438Z,91.80
2018-12-14T05:50:10.550Z,91.50
2018-12-14T05:52:46.513Z,91.40
2018-12-14T05:55:22.633Z,91.50
2018-12-14T05:57:58.719Z,91.60
2018-12-14T06:00:35.744Z,91.70
2018-12-14T06:03:11.944Z,91.60
2018-12-14T06:05:44.265Z,91.70
2018-12-14T06:08:16.802Z,91.70
2018-12-14T06:10:52.835Z,91.70
2018-12-14T06:13:28.860Z,91.50
2018-12-14T06:16:01.125Z,91.60
2018-12-14T06:18:37.371Z,91.50
2018-12-14T06:21:13.402Z,91.60
2018-12-14T06:23:45.616Z,91.70
2018-12-14T06:26:21.616Z,91.80
2018-12-14T06:28:57.941Z,91.70
2018-12-14T06:31:30.214Z,91.30
2018-12-14T06:34:06.327Z,91.30
2018-12-14T06:36:38.510Z,91.40
2018-12-14T06:39:15.144Z,91.60
2018-12-14T06:41:50.971Z,91.50
2018-12-14T06:44:26.805Z,91.40
2018-12-14T06:47:02.803Z,91.30
2018-12-14T06:49:39.019Z,91.30
2018-12-14T06:52:15.259Z,91.50
2018-12-14T06:54:51.396Z,91.40
2018-12-14T06:57:27.628Z,91.50
2018-12-14T06:59:59.832Z,91.40
2018-12-14T07:02:36.129Z,91.20
2018-12-14T07:05:12.236Z,91.30
2018-12-14T07:07:48.340Z,99.90
2018-12-14T07:10:24.536Z,89.00
2018-12-14T07:13:00.676Z,90.50
2018-12-14T07:15:36.879Z,90.60
2018-12-14T07:18:12.965Z,90.80
2018-12-14T07:20:49.507Z,91.60
2018-12-14T07:23:25.505Z,91.70
2018-12-14T07:26:01.644Z,91.60
2018-12-14T07:28:33.853Z,91.70
2018-12-14T07:31:09.983Z,91.70
2018-12-14T07:33:46.068Z,91.40
2018-12-14T07:36:22.296Z,91.30
2018-12-14T07:38:54.489Z,91.20
2018-12-14T07:41:30.645Z,91.60
2018-12-14T07:44:02.968Z,91.60
2018-12-14T07:46:39.096Z,91.60
2018-12-14T07:49:15.040Z,91.70
2018-12-14T07:51:47.443Z,91.50
2018-12-14T07:54:23.511Z,91.50
2018-12-14T07:56:59.633Z,91.60
2018-12-14T07:59:35.816Z,91.50
2018-12-14T08:02:11.853Z,91.20
2018-12-14T08:07:17.988Z,91.10
2018-12-14T08:09:53.974Z,90.90
2018-12-14T08:12:30.085Z,91.00
2018-12-14T08:15:11.297Z,90.80
2018-12-14T08:17:44.476Z,91.00
2018-12-14T08:20:20.597Z,90.50
2018-12-14T08:22:56.741Z,90.20
2018-12-14T08:25:32.735Z,90.70
2018-12-14T08:28:09.093Z,90.40
2018-12-14T08:30:45.238Z,90.30
2018-12-14T08:33:21.363Z,90.10
2018-12-14T08:35:57.463Z,89.80
2018-12-14T08:38:33.594Z,89.60
2018-12-14T08:41:10.540Z,90.20
2018-12-14T08:43:46.796Z,89.40
2018-12-14T08:46:23.008Z,89.60
2018-12-14T08:48:59.408Z,90.10
2018-12-14T08:51:35.316Z,89.60
2018-12-14T08:54:07.714Z,89.20
2018-12-14T08:56:43.869Z,89.20
2018-12-14T08:59:19.783Z,88.30
2018-12-14T09:01:55.950Z,87.90
2018-12-14T09:04:31.971Z,88.60
2018-12-14T09:07:08.052Z,88.40
2018-12-14T09:12:15.177Z,87.90
2018-12-14T09:14:47.485Z,88.40
2018-12-14T09:30:10.601Z,85.40
2018-12-14T09:32:46.660Z,85.50
2018-12-14T09:35:22.771Z,85.00
2018-12-14T09:37:58.864Z,84.80
2018-12-14T09:40:34.992Z,85.20
2018-12-14T09:43:10.912Z,84.50
2018-12-14T09:45:47.030Z,85.30
2018-12-14T09:48:19.297Z,85.40
2018-12-14T09:50:51.709Z,86.30
2018-12-14T09:53:27.823Z,86.50
2018-12-14T09:56:03.931Z,84.70
2018-12-14T09:58:36.169Z,82.90
2018-12-14T10:01:12.256Z,82.30
2018-12-14T10:03:48.840Z,82.80
2018-12-14T10:06:24.672Z,82.60
2018-12-14T10:09:00.843Z,82.10
2018-12-14T10:11:36.945Z,82.70
2018-12-14T10:14:12.978Z,82.00
2018-12-14T10:16:49.061Z,81.60
2018-12-14T10:19:25.219Z,82.50
2018-12-14T10:22:01.221Z,82.00
2018-12-14T10:24:37.325Z,81.70
2018-12-14T10:27:09.661Z,82.30
2018-12-14T10:29:45.852Z,82.30
2018-12-14T10:32:21.993Z,82.70
2018-12-14T10:34:58.133Z,82.60
2018-12-14T10:37:30.341Z,82.60
2018-12-14T10:40:02.690Z,82.90
2018-12-14T10:42:38.780Z,83.50
2018-12-14T10:45:11.099Z,82.60
2018-12-14T10:47:43.360Z,83.10
2018-12-14T10:50:19.713Z,84.50
2018-12-14T10:52:55.596Z,82.90
2018-12-14T10:55:31.773Z,82.70
2018-12-14T10:58:07.644Z,83.10
2018-12-14T11:00:48.933Z,83.00
2018-12-14T11:03:24.925Z,82.90
2018-12-14T11:06:01.248Z,83.30
2018-12-14T11:08:37.441Z,82.20
2018-12-14T11:11:13.687Z,82.00
2018-12-14T11:13:49.774Z,81.70
2018-12-14T11:16:25.864Z,81.20
2018-12-14T11:19:02.015Z,81.80
2018-12-14T11:21:34.256Z,80.80
2018-12-14T11:24:06.463Z,81.10
2018-12-14T11:26:42.804Z,81.10
2018-12-14T11:29:18.877Z,80.30
2018-12-14T11:31:55.040Z,80.00
2018-12-14T11:34:29.841Z,80.90
2018-12-14T11:37:05.682Z,80.90
2018-12-14T11:39:38.033Z,80.80
2018-12-14T11:42:14.237Z,80.90
2018-12-14T11:44:50.379Z,80.90
2018-12-14T11:47:22.738Z,80.90
2018-12-14T11:49:58.831Z,80.30
2018-12-14T11:52:31.413Z,80.50
2018-12-14T11:55:09.297Z,80.90
2018-12-14T11:57:44.976Z,80.00
2018-12-14T12:00:21.014Z,79.30
2018-12-14T12:02:53.420Z,79.70
2018-12-14T12:05:29.207Z,78.60
2018-12-14T12:08:01.668Z,79.30
2018-12-14T12:10:37.364Z,79.00
2018-12-14T12:13:13.428Z,79.90
2018-12-14T12:15:49.516Z,80.00
2018-12-14T12:18:25.757Z,80.40
2018-12-14T12:21:01.742Z,80.90
2018-12-14T12:23:34.005Z,81.60
2018-12-14T12:26:10.116Z,81.60
2018-12-14T12:28:46.048Z,81.60
2018-12-14T12:31:18.292Z,81.80
2018-12-14T12:33:54.432Z,81.00
2018-12-14T12:39:05.946Z,81.50
2018-12-14T12:41:41.872Z,81.60
2018-12-14T12:44:17.975Z,82.00
2018-12-14T12:46:54.164Z,81.90
2018-12-14T12:49:30.265Z,82.40
2018-12-14T12:52:06.977Z,81.40
2018-12-14T12:54:43.133Z,81.60
2018-12-14T12:57:19.053Z,82.70
2018-12-14T12:59:51.393Z,81.90
2018-12-14T13:02:23.704Z,82.00
2018-12-14T13:05:00.134Z,82.20
2018-12-14T13:07:36.264Z,81.30
2018-12-14T13:10:08.647Z,80.30
2018-12-14T13:12:44.452Z,81.50
2018-12-14T13:15:20.451Z,81.00
2018-12-14T13:17:56.405Z,80.90
2018-12-14T13:20:32.461Z,81.40
2018-12-14T13:23:04.769Z,81.70
2018-12-14T13:25:41.087Z,81.40
2018-12-14T13:28:17.203Z,81.00
2018-12-14T13:30:53.385Z,81.20
2018-12-14T13:33:29.455Z,80.90
2018-12-14T13:36:05.458Z,80.70
2018-12-14T13:38:41.745Z,80.30
2018-12-14T13:59:07.657Z,82.10
2018-12-14T14:01:43.632Z,80.80
2018-12-14T14:04:19.667Z,81.30
2018-12-14T14:06:55.802Z,81.60
2018-12-14T14:09:31.941Z,81.20
2018-12-14T14:12:08.092Z,81.00
2018-12-14T14:14:40.477Z,81.20
2018-12-14T14:17:16.585Z,81.30
2018-12-14T14:19:49.136Z,82.70
2018-12-14T14:22:24.996Z,82.70
2018-12-14T14:25:00.977Z,82.00
2018-12-14T14:27:36.886Z,82.10
2018-12-14T14:30:13.077Z,82.10
2018-12-14T14:32:45.260Z,82.00
2018-12-14T14:35:21.566Z,81.90
2018-12-14T14:37:57.718Z,81.00
2018-12-14T14:40:33.905Z,80.80
2018-12-14T14:43:09.920Z,81.80
2018-12-14T14:45:46.099Z,80.40
2018-12-14T14:48:22.336Z,80.50
2018-12-14T14:50:54.616Z,80.00
2018-12-14T14:53:26.960Z,79.50
2018-12-14T14:56:02.884Z,79.40
2018-12-14T14:58:39.125Z,79.80
2018-12-14T15:01:11.465Z,80.20
2018-12-14T15:03:48.738Z,79.90
2018-12-14T15:06:24.941Z,80.00
2018-12-14T15:09:01.101Z,80.30
2018-12-14T15:11:37.323Z,80.20
2018-12-14T15:14:13.501Z,80.20
2018-12-14T15:16:49.682Z,79.60
2018-12-14T15:19:25.824Z,79.00
2018-12-14T15:22:04.383Z,79.10
2018-12-14T15:24:36.344Z,79.00
2018-12-14T15:27:12.555Z,78.80
2018-12-14T15:29:48.634Z,78.90
2018-12-14T15:32:25.189Z,79.40
2018-12-14T15:35:00.945Z,78.10
2018-12-14T15:37:37.261Z,77.80
2018-12-14T15:40:13.842Z,77.70
2018-12-14T15:42:46.373Z,77.20
2018-12-14T15:45:22.515Z,75.80
2018-12-14T15:47:58.799Z,75.80
2018-12-14T15:50:34.649Z,76.10
2018-12-14T15:53:10.846Z,75.90
2018-12-14T15:55:46.984Z,76.40
2018-12-14T15:58:23.265Z,75.50
2018-12-14T16:00:59.309Z,75.20
2018-12-14T16:03:35.479Z,74.30
2018-12-14T16:06:11.520Z,75.10
2018-12-14T16:08:47.730Z,74.30
2018-12-14T16:11:23.932Z,74.60
2018-12-14T16:14:00.209Z,74.70
2018-12-14T16:16:36.393Z,74.20
2018-12-14T16:19:08.839Z,74.60
2018-12-14T16:21:44.842Z,73.70
2018-12-14T16:24:21.027Z,73.10
2018-12-14T16:26:56.960Z,73.70
2018-12-14T16:29:33.403Z,74.90
2018-12-14T16:32:09.632Z,73.90
2018-12-14T16:34:45.815Z,74.60
2018-12-14T16:37:22.022Z,74.20
2018-12-14T16:39:58.323Z,74.10
2018-12-14T16:42:34.484Z,73.80
2018-12-14T16:45:10.472Z,74.10
2018-12-14T16:47:46.749Z,72.50
2018-12-14T16:50:22.952Z,74.20
2018-12-14T16:52:58.991Z,72.70
2018-12-14T16:55:35.144Z,72.30
2018-12-14T16:58:11.353Z,73.40
2018-12-14T17:00:47.699Z,73.70
2018-12-14T17:03:23.680Z,74.10
2018-12-14T17:05:59.965Z,73.40
2018-12-14T17:08:36.098Z,72.70
2018-12-14T17:11:12.257Z,73.90
2018-12-14T17:13:48.342Z,73.80
2018-12-14T17:36:48.165Z,75.30
2018-12-14T17:39:24.476Z,76.30
2018-12-14T17:42:00.662Z,75.60
2018-12-14T17:44:36.700Z,75.00
2018-12-14T17:47:12.994Z,74.60
2018-12-14T17:49:48.866Z,75.50
2018-12-14T17:52:21.181Z,75.40
2018-12-14T17:54:57.208Z,76.00
2018-12-14T17:57:29.429Z,75.90
2018-12-14T18:00:06.260Z,75.40
2018-12-14T18:02:38.756Z,75.70
2018-12-14T18:05:14.977Z,75.60
2018-12-14T18:07:47.193Z,74.30
2018-12-14T18:10:23.513Z,73.30
2018-12-14T18:12:59.678Z,74.10
2018-12-14T18:15:35.780Z,76.00
2018-12-14T18:18:11.965Z,73.30
2018-12-14T18:20:48.120Z,73.50
2018-12-14T18:23:24.163Z,73.90
2018-12-14T18:25:59.938Z,75.10
2018-12-14T18:28:35.905Z,74.30
2018-12-14T18:31:12.112Z,74.80
2018-12-14T18:33:48.169Z,74.90
2018-12-14T18:36:24.339Z,74.60
2018-12-14T18:39:00.461Z,74.10
2018-12-14T18:41:36.605Z,75.00
2018-12-14T19:12:20.872Z,76.40
2018-12-14T19:14:56.585Z,76.50
2018-12-14T19:17:32.552Z,76.80
2018-12-14T19:20:08.652Z,77.20
2018-12-14T19:22:44.901Z,77.80
2018-12-14T19:25:21.198Z,77.30
2018-12-14T19:27:57.302Z,78.30
2018-12-14T19:30:29.713Z,79.20
2018-12-14T19:33:05.692Z,79.10
2018-12-14T19:35:42.004Z,79.50
2018-12-14T19:38:18.283Z,80.60
2018-12-14T19:40:54.384Z,80.40
2018-12-14T19:43:30.488Z,80.40
2018-12-14T19:46:06.720Z,80.80
2018-12-14T19:48:42.715Z,80.30
2018-12-14T19:51:18.998Z,81.00
2018-12-14T19:53:55.213Z,81.30
2018-12-14T19:56:31.343Z,80.50
2018-12-14T19:59:07.481Z,81.20
2018-12-14T20:01:43.994Z,81.80
2018-12-14T20:04:19.946Z,82.50
2018-12-14T20:06:56.865Z,81.70
2018-12-14T20:09:29.360Z,82.50
2018-12-14T20:12:05.673Z,82.50
2018-12-14T20:17:14.870Z,83.00
2018-12-14T20:19:50.976Z,82.80
2018-12-14T20:22:27.121Z,82.60
2018-12-14T20:25:03.296Z,82.90
2018-12-14T20:27:39.223Z,83.20
2018-12-14T20:30:15.355Z,82.80
2018-12-14T20:32:51.351Z,83.10
2018-12-14T20:35:27.774Z,83.10
2018-12-14T20:38:04.035Z,83.10
2018-12-14T20:40:39.945Z,83.00
2018-12-14T20:43:16.075Z,83.70
2018-12-14T20:45:48.747Z,83.70
2018-12-14T20:48:27.849Z,84.40
2018-12-14T20:51:03.766Z,86.30
2018-12-14T20:53:40.049Z,86.00
2018-12-14T20:56:16.374Z,85.90
2018-12-14T20:58:52.328Z,85.80
2018-12-14T21:01:24.673Z,86.50
2018-12-14T21:04:00.814Z,85.80
2018-12-14T21:06:37.004Z,86.60
2018-12-14T21:09:13.061Z,87.70
2018-12-14T21:11:49.369Z,86.00
2018-12-14T21:14:25.493Z,85.80
2018-12-14T21:17:01.610Z,86.10
2018-12-14T21:34:58.638Z,85.80
2018-12-14T21:37:30.930Z,86.20
2018-12-14T21:40:07.804Z,86.50
2018-12-14T21:42:44.105Z,86.70
2018-12-14T21:45:20.178Z,86.60
2018-12-14T21:47:56.341Z,86.60
2018-12-14T21:50:32.375Z,86.80
2018-12-14T21:53:14.219Z,86.80
2018-12-14T21:55:46.595Z,87.10
2018-12-14T21:58:22.713Z,86.50
2018-12-14T22:00:58.989Z,86.10
2018-12-14T22:03:34.878Z,86.70
2018-12-14T22:06:10.957Z,86.50
2018-12-14T22:08:47.157Z,86.90
2018-12-14T22:11:23.204Z,87.00
2018-12-14T22:13:59.422Z,86.90
2018-12-14T22:16:39.215Z,86.70
2018-12-14T22:19:13.987Z,86.60
2018-12-14T22:21:50.253Z,87.80
2018-12-14T22:24:26.050Z,87.10
2018-12-14T22:27:02.152Z,87.00
2018-12-14T22:29:38.290Z,86.60
2018-12-14T22:32:14.367Z,87.50
2018-12-14T22:34:46.677Z,87.80
2018-12-14T22:37:22.628Z,86.60
2018-12-14T22:39:58.524Z,87.50
2018-12-14T22:42:34.766Z,87.60
2018-12-14T22:45:10.821Z,87.70
2018-12-14T22:47:47.140Z,87.60
2018-12-14T22:50:23.171Z,87.20
2018-12-14T22:52:55.589Z,86.80
2018-12-14T22:55:31.688Z,86.70
2018-12-14T22:58:07.907Z,86.70
2018-12-14T23:00:49.289Z,86.70
2018-12-14T23:03:24.976Z,86.90
2018-12-14T23:06:01.095Z,86.40
2018-12-14T23:08:37.016Z,86.70
2018-12-14T23:11:13.256Z,86.70
2018-12-14T23:13:49.349Z,87.40
2018-12-14T23:16:21.612Z,87.30
2018-12-14T23:18:57.649Z,87.10
2018-12-14T23:21:33.851Z,86.80
2018-12-14T23:24:09.778Z,87.30
2018-12-14T23:26:42.007Z,87.20
2018-12-14T23:29:17.973Z,87.50
2018-12-14T23:31:50.226Z,87.00
2018-12-14T23:34:26.316Z,86.90
2018-12-14T23:37:02.468Z,87.40
2018-12-14T23:39:34.765Z,87.00
2018-12-14T23:42:07.510Z,87.30
2018-12-14T23:44:43.206Z,86.30
2018-12-14T23:47:19.565Z,86.40
2018-12-14T23:49:55.773Z,87.00
2018-12-14T23:52:32.081Z,86.50
2018-12-14T23:55:08.076Z,87.10
2018-12-14T23:57:40.304Z,87.00
